createdAt,value
2022-10-18T00:02:20.186Z,23.88
2022-10-18T00:04:47.246Z,22.27
2022-10-18T00:07:14.500Z,23.38
2022-10-18T00:09:41.291Z,21.27
2022-10-18T00:12:08.255Z,21.92
2022-10-18T00:14:35.106Z,21.13
2022-10-18T00:17:01.858Z,21.83
2022-10-18T00:19:29.466Z,22.75
2022-10-18T00:21:56.571Z,21.52
2022-10-18T00:24:23.335Z,22.00
2022-10-18T00:26:50.119Z,21.20
2022-10-18T00:29:18.137Z,20.50
2022-10-18T00:31:45.342Z,24.75
2022-10-18T00:34:14.370Z,22.10
2022-10-18T00:36:41.910Z,23.85
2022-10-18T00:39:12.502Z,25.73
2022-10-18T00:41:39.278Z,24.53
2022-10-18T00:44:12.027Z,20.60
2022-10-18T00:46:41.137Z,19.88
2022-10-18T00:49:16.188Z,18.65
2022-10-18T00:51:46.853Z,18.17
2022-10-18T00:54:15.114Z,17.23
2022-10-18T00:56:44.772Z,17.45
2022-10-18T00:59:13.822Z,15.65
2022-10-18T01:01:40.666Z,16.67
2022-10-18T01:04:07.422Z,16.10
2022-10-18T01:06:41.768Z,16.00
2022-10-18T01:09:23.473Z,16.63
2022-10-18T01:12:22.419Z,16.55
2022-10-18T01:15:03.480Z,19.45
2022-10-18T01:17:42.663Z,18.67
2022-10-18T01:20:46.910Z,18.53
2022-10-18T01:23:38.357Z,18.67
2022-10-18T01:26:10.587Z,18.40
2022-10-18T01:28:58.749Z,18.10
2022-10-18T01:31:47.992Z,19.10
2022-10-18T01:34:17.978Z,17.43
2022-10-18T01:36:49.714Z,18.45
2022-10-18T01:39:21.878Z,17.83
2022-10-18T01:41:49.911Z,17.50
2022-10-18T01:44:23.569Z,17.00
2022-10-18T01:46:53.819Z,16.67
2022-10-18T01:49:20.952Z,15.32
2022-10-18T01:51:47.862Z,15.38
2022-10-18T01:54:21.741Z,16.42
2022-10-18T01:57:03.566Z,15.98
2022-10-18T01:59:59.702Z,15.83
2022-10-18T02:02:32.758Z,16.75
2022-10-18T02:05:30.224Z,16.10
2022-10-18T02:08:12.343Z,15.20
2022-10-18T02:11:09.573Z,15.07
2022-10-18T02:13:41.924Z,14.50
2022-10-18T02:16:13.348Z,10.43
2022-10-18T02:18:48.571Z,11.85
2022-10-18T02:21:19.433Z,11.75
2022-10-18T02:23:47.386Z,10.98
2022-10-18T02:26:15.877Z,13.70
2022-10-18T02:28:43.190Z,16.08
2022-10-18T02:31:17.853Z,14.90
2022-10-18T02:34:16.839Z,14.55
2022-10-18T02:36:48.484Z,17.45
2022-10-18T02:39:22.538Z,18.85
2022-10-18T02:41:49.432Z,17.23
2022-10-18T02:44:16.468Z,15.07
2022-10-18T02:46:43.416Z,14.63
2022-10-18T02:49:10.162Z,15.05
2022-10-18T02:51:36.905Z,13.60
2022-10-18T02:54:03.701Z,14.18
2022-10-18T02:56:30.556Z,15.40
2022-10-18T02:58:57.371Z,14.80
2022-10-18T03:01:24.131Z,14.77
2022-10-18T03:03:51.490Z,15.15
2022-10-18T03:06:18.265Z,15.18
2022-10-18T03:08:45.561Z,15.50
2022-10-18T03:11:12.260Z,14.00
2022-10-18T03:13:38.969Z,14.80
2022-10-18T03:16:05.938Z,15.20
2022-10-18T03:18:32.651Z,15.52
2022-10-18T03:20:59.459Z,15.95
2022-10-18T03:23:26.214Z,16.13
2022-10-18T03:25:52.996Z,15.40
2022-10-18T03:28:19.831Z,15.55
2022-10-18T03:30:46.600Z,16.10
2022-10-18T03:33:13.372Z,15.40
2022-10-18T03:35:40.163Z,15.32
2022-10-18T03:38:06.945Z,14.70
2022-10-18T03:40:33.802Z,14.30
2022-10-18T03:43:00.543Z,16.52
2022-10-18T03:45:30.433Z,15.80
2022-10-18T03:47:58.342Z,14.02
2022-10-18T03:50:25.180Z,14.45
2022-10-18T03:52:51.954Z,16.25
2022-10-18T03:55:18.766Z,16.40
2022-10-18T03:57:45.517Z,15.68
2022-10-18T04:00:12.905Z,14.95
2022-10-18T04:02:40.755Z,15.05
2022-10-18T04:05:08.606Z,14.90
2022-10-18T04:10:04.448Z,13.65
2022-10-18T04:12:31.406Z,13.80
2022-10-18T04:14:58.408Z,14.15
2022-10-18T04:17:25.212Z,15.98
2022-10-18T04:19:51.879Z,15.05
2022-10-18T04:22:19.474Z,16.27
2022-10-18T04:24:46.586Z,15.38
2022-10-18T04:27:13.397Z,17.50
2022-10-18T04:29:40.089Z,16.55
2022-10-18T04:32:06.864Z,15.38
2022-10-18T04:34:33.601Z,16.27
2022-10-18T04:37:00.474Z,15.05
2022-10-18T04:39:27.619Z,15.27
2022-10-18T04:41:54.437Z,13.68
2022-10-18T04:44:21.107Z,13.80
2022-10-18T04:46:47.961Z,13.52
2022-10-18T04:49:14.736Z,14.43
2022-10-18T04:51:41.446Z,13.85
2022-10-18T04:54:08.223Z,15.80
2022-10-18T04:56:34.943Z,15.45
2022-10-18T04:59:01.723Z,15.60
2022-10-18T05:01:28.574Z,18.08
2022-10-18T05:03:55.503Z,16.27
2022-10-18T05:06:22.918Z,15.03
2022-10-18T05:08:50.030Z,15.48
2022-10-18T05:11:16.784Z,16.13
2022-10-18T05:13:45.985Z,18.50
2022-10-18T05:16:16.115Z,16.52
2022-10-18T05:18:43.314Z,16.27
2022-10-18T05:21:10.402Z,15.10
2022-10-18T05:23:37.061Z,14.32
2022-10-18T05:26:06.544Z,20.52
2022-10-18T05:28:39.648Z,18.98
2022-10-18T05:31:08.635Z,13.80
2022-10-18T05:33:35.849Z,15.32
2022-10-18T05:36:02.725Z,15.73
2022-10-18T05:38:32.819Z,14.73
2022-10-18T05:40:59.959Z,14.80
2022-10-18T05:43:30.072Z,14.30
2022-10-18T05:45:56.960Z,15.02
2022-10-18T05:48:23.806Z,13.45
2022-10-18T05:50:50.577Z,12.70
2022-10-18T05:53:36.757Z,13.27
2022-10-18T05:56:04.351Z,13.40
2022-10-18T05:58:31.120Z,12.88
2022-10-18T06:01:01.686Z,14.57
2022-10-18T06:03:30.320Z,19.13
2022-10-18T06:06:11.524Z,15.57
2022-10-18T06:08:39.605Z,15.57
2022-10-18T06:11:17.638Z,16.50
2022-10-18T06:13:46.783Z,16.20
2022-10-18T06:16:15.375Z,16.88
2022-10-18T06:18:42.339Z,16.73
2022-10-18T06:21:09.673Z,14.93
2022-10-18T06:23:36.425Z,12.88
2022-10-18T06:26:08.263Z,12.25
2022-10-18T06:28:36.575Z,11.80
2022-10-18T06:31:04.865Z,12.57
2022-10-18T06:33:32.752Z,11.20
2022-10-18T06:36:01.390Z,11.38
2022-10-18T06:38:29.308Z,11.23
2022-10-18T06:40:57.345Z,12.13
2022-10-18T06:43:24.288Z,11.75
2022-10-18T06:45:51.574Z,12.03
2022-10-18T06:50:59.511Z,11.05
2022-10-18T06:53:28.281Z,11.55
2022-10-18T06:56:08.355Z,11.38
2022-10-18T06:58:35.643Z,10.93
2022-10-18T07:01:10.273Z,12.75
2022-10-18T07:03:37.454Z,11.20
2022-10-18T07:06:06.603Z,10.40
2022-10-18T07:08:34.211Z,10.77
2022-10-18T07:11:01.170Z,11.60
2022-10-18T07:13:33.048Z,12.32
2022-10-18T07:16:06.064Z,9.90
2022-10-18T07:18:38.042Z,10.68
2022-10-18T07:21:07.231Z,11.10
2022-10-18T07:23:35.184Z,10.37
2022-10-18T07:26:04.268Z,12.57
2022-10-18T07:28:31.191Z,15.75
2022-10-18T07:31:01.298Z,11.77
2022-10-18T07:33:31.998Z,8.90
2022-10-18T07:36:03.808Z,10.53
2022-10-18T07:38:30.482Z,8.27
2022-10-18T07:41:01.531Z,9.55
2022-10-18T07:43:28.593Z,8.48
2022-10-18T07:45:57.970Z,9.45
2022-10-18T07:48:25.152Z,9.87
2022-10-18T07:50:52.092Z,9.38
2022-10-18T07:53:18.870Z,9.20
2022-10-18T07:55:45.799Z,10.23
2022-10-18T07:58:12.602Z,9.55
2022-10-18T08:00:40.354Z,7.60
2022-10-18T08:03:07.158Z,7.68
2022-10-18T08:05:33.924Z,7.90
2022-10-18T08:08:04.233Z,8.93
2022-10-18T08:10:35.356Z,7.70
2022-10-18T08:13:02.151Z,7.63
2022-10-18T08:15:28.884Z,7.40
2022-10-18T08:17:55.526Z,8.07
2022-10-18T08:20:30.529Z,8.00
2022-10-18T08:23:00.467Z,8.77
2022-10-18T08:25:28.471Z,8.67
2022-10-18T08:27:55.179Z,9.13
2022-10-18T08:30:23.405Z,8.63
2022-10-18T08:32:50.077Z,7.85
2022-10-18T08:35:16.826Z,7.85
2022-10-18T08:37:45.327Z,8.10
2022-10-18T08:40:15.770Z,8.13
2022-10-18T08:42:58.426Z,8.68
2022-10-18T08:45:41.027Z,8.27
2022-10-18T08:48:19.450Z,7.82
2022-10-18T08:50:46.823Z,8.50
2022-10-18T08:53:37.738Z,8.50
2022-10-18T08:56:14.718Z,9.05
2022-10-18T08:58:46.457Z,8.35
2022-10-18T09:01:37.747Z,8.13
2022-10-18T09:04:31.026Z,8.27
2022-10-18T09:07:17.963Z,8.60
2022-10-18T09:10:08.573Z,9.23
2022-10-18T09:12:54.027Z,8.20
2022-10-18T09:15:23.327Z,8.45
2022-10-18T09:18:13.997Z,7.90
2022-10-18T09:20:52.771Z,8.48
2022-10-18T09:23:46.327Z,8.27
2022-10-18T09:26:21.805Z,8.77
2022-10-18T09:28:55.271Z,7.95
2022-10-18T09:31:46.081Z,9.23
2022-10-18T09:34:25.854Z,9.73
2022-10-18T09:36:52.866Z,9.90
2022-10-18T09:39:24.984Z,9.10
2022-10-18T09:42:02.317Z,9.45
2022-10-18T09:44:35.942Z,9.40
2022-10-18T09:47:17.015Z,9.57
2022-10-18T09:49:48.489Z,9.38
2022-10-18T09:52:28.437Z,10.48
2022-10-18T09:55:03.419Z,9.55
2022-10-18T09:57:30.432Z,10.17
2022-10-18T09:59:58.975Z,9.82
2022-10-18T10:02:25.704Z,10.05
2022-10-18T10:04:54.312Z,10.45
2022-10-18T10:07:35.395Z,9.90
2022-10-18T10:10:28.606Z,9.50
2022-10-18T10:13:24.551Z,9.93
2022-10-18T10:15:56.758Z,9.93
2022-10-18T10:18:34.645Z,10.55
2022-10-18T10:21:05.741Z,9.30
2022-10-18T10:23:50.603Z,9.93
2022-10-18T10:26:23.133Z,10.23
2022-10-18T10:28:50.263Z,9.77
2022-10-18T10:31:16.984Z,9.65
2022-10-18T10:33:46.883Z,9.57
2022-10-18T10:36:21.457Z,10.20
2022-10-18T10:39:07.653Z,9.38
2022-10-18T10:41:34.982Z,10.23
2022-10-18T10:44:13.930Z,9.40
2022-10-18T10:46:40.834Z,9.20
2022-10-18T10:49:39.629Z,10.10
2022-10-18T10:52:09.381Z,9.32
2022-10-18T10:54:55.721Z,9.68
2022-10-18T10:57:28.880Z,9.88
2022-10-18T10:59:59.625Z,10.18
2022-10-18T11:02:31.206Z,9.53
2022-10-18T11:05:21.682Z,10.07
2022-10-18T11:07:52.988Z,10.07
2022-10-18T11:10:23.748Z,9.65
2022-10-18T11:12:56.248Z,10.18
2022-10-18T11:15:30.071Z,9.33
2022-10-18T11:18:20.101Z,9.50
2022-10-18T11:21:11.412Z,9.52
2022-10-18T11:23:40.074Z,9.43
2022-10-18T11:26:12.779Z,8.93
2022-10-18T11:28:42.578Z,9.23
2022-10-18T11:31:12.852Z,9.43
2022-10-18T11:34:17.044Z,8.52
2022-10-18T11:37:39.502Z,8.48
2022-10-18T11:40:30.665Z,7.40
2022-10-18T11:43:03.198Z,8.20
2022-10-18T11:45:41.848Z,7.63
2022-10-18T11:48:27.221Z,7.72
2022-10-18T11:51:10.385Z,8.38
2022-10-18T11:54:07.911Z,8.32
2022-10-18T11:57:05.304Z,7.50
2022-10-18T12:00:05.977Z,7.82
2022-10-18T12:02:53.990Z,7.05
2022-10-18T12:05:24.222Z,8.00
2022-10-18T12:08:02.053Z,8.07
2022-10-18T12:10:44.482Z,8.30
2022-10-18T12:13:25.581Z,7.45
2022-10-18T12:15:53.555Z,8.07
2022-10-18T12:18:23.251Z,7.47
2022-10-18T12:20:53.902Z,7.25
2022-10-18T12:23:30.353Z,7.27
2022-10-18T12:26:03.199Z,7.47
2022-10-18T12:28:32.739Z,7.93
2022-10-18T12:31:03.016Z,7.47
2022-10-18T12:33:38.375Z,7.53
2022-10-18T12:36:43.560Z,7.10
2022-10-18T12:39:16.327Z,6.93
2022-10-18T12:41:47.705Z,7.32
2022-10-18T12:44:28.901Z,7.00
2022-10-18T12:47:01.042Z,7.18
2022-10-18T12:49:34.295Z,7.07
2022-10-18T12:52:18.774Z,7.60
2022-10-18T12:55:24.199Z,6.88
2022-10-18T12:57:53.787Z,7.38
2022-10-18T13:00:29.668Z,7.22
2022-10-18T13:03:25.430Z,6.37
2022-10-18T13:05:54.330Z,6.60
2022-10-18T13:08:27.798Z,6.50
2022-10-18T13:11:12.330Z,6.35
2022-10-18T13:13:44.790Z,5.88
2022-10-18T13:16:23.347Z,5.63
2022-10-18T13:18:54.690Z,5.60
2022-10-18T13:21:40.924Z,5.75
2022-10-18T13:24:31.146Z,6.38
2022-10-18T13:27:35.140Z,5.70
2022-10-18T13:30:27.406Z,5.03
2022-10-18T13:33:17.234Z,5.38
2022-10-18T13:35:55.491Z,5.13
2022-10-18T13:38:31.127Z,5.38
2022-10-18T13:41:10.220Z,5.55
2022-10-18T13:44:13.786Z,5.27
2022-10-18T13:46:40.487Z,5.68
2022-10-18T13:49:35.039Z,5.60
2022-10-18T13:52:39.290Z,5.53
2022-10-18T13:55:27.504Z,5.25
2022-10-18T13:58:09.264Z,5.70
2022-10-18T14:00:48.796Z,5.40
2022-10-18T14:03:58.271Z,5.65
2022-10-18T14:06:36.197Z,5.20
2022-10-18T14:09:25.503Z,5.63
2022-10-18T14:12:19.124Z,6.00
2022-10-18T14:14:59.518Z,6.45
2022-10-18T14:20:17.814Z,5.75
2022-10-18T14:23:05.280Z,5.88
2022-10-18T14:25:35.818Z,6.13
2022-10-18T14:28:13.359Z,5.78
2022-10-18T14:30:54.351Z,7.55
2022-10-18T14:33:57.649Z,6.45
2022-10-18T14:36:27.121Z,7.10
2022-10-18T14:39:03.366Z,7.53
2022-10-18T14:41:33.004Z,7.55
2022-10-18T14:44:11.643Z,7.45
2022-10-18T14:46:47.563Z,7.60
2022-10-18T14:49:15.502Z,7.15
2022-10-18T14:51:44.352Z,7.93
2022-10-18T14:54:20.355Z,7.90
2022-10-18T14:56:48.090Z,7.15
2022-10-18T14:59:26.954Z,7.38
2022-10-18T15:02:03.190Z,8.00
2022-10-18T15:04:33.144Z,8.83
2022-10-18T15:07:08.211Z,8.85
2022-10-18T15:09:36.987Z,9.07
2022-10-18T15:12:06.113Z,8.88
2022-10-18T15:14:34.592Z,10.20
2022-10-18T15:17:36.782Z,10.37
2022-10-18T15:20:19.972Z,10.63
2022-10-18T15:22:46.936Z,10.10
2022-10-18T15:25:15.804Z,10.88
2022-10-18T15:27:49.300Z,11.98
2022-10-18T15:30:28.856Z,10.47
2022-10-18T15:32:56.794Z,11.00
2022-10-18T15:35:35.126Z,11.73
2022-10-18T15:38:21.268Z,11.48
2022-10-18T15:40:48.384Z,12.63
2022-10-18T15:43:23.885Z,11.77
2022-10-18T15:46:01.803Z,10.90
2022-10-18T15:48:41.613Z,11.00
2022-10-18T15:51:21.711Z,10.40
2022-10-18T15:53:52.603Z,11.07
2022-10-18T15:56:38.114Z,10.90
2022-10-18T15:59:20.669Z,11.02
2022-10-18T16:01:47.589Z,10.55
2022-10-18T16:04:24.370Z,10.40
2022-10-18T16:06:51.919Z,10.98
2022-10-18T16:09:20.893Z,11.83
2022-10-18T16:11:56.417Z,12.18
2022-10-18T16:14:26.455Z,10.63
2022-10-18T16:16:56.307Z,19.40
2022-10-18T16:19:23.088Z,23.08
2022-10-18T16:21:51.173Z,19.50
2022-10-18T16:24:19.752Z,16.80
2022-10-18T16:26:47.612Z,16.38
2022-10-18T16:29:21.820Z,13.65
2022-10-18T16:31:50.864Z,14.20
2022-10-18T16:34:18.463Z,13.57
2022-10-18T16:36:45.835Z,14.07
2022-10-18T16:39:19.173Z,14.07
2022-10-18T16:41:47.237Z,13.40
2022-10-18T16:44:15.652Z,13.00
2022-10-18T16:46:43.036Z,13.67
2022-10-18T16:49:24.684Z,15.65
2022-10-18T16:51:55.722Z,17.10
2022-10-18T16:54:23.492Z,21.48
2022-10-18T16:56:50.514Z,19.83
2022-10-18T16:59:27.298Z,17.40
2022-10-18T17:01:54.123Z,14.43
2022-10-18T17:04:20.995Z,14.75
2022-10-18T17:06:49.149Z,15.18
2022-10-18T17:09:16.536Z,14.35
2022-10-18T17:11:43.257Z,14.03
2022-10-18T17:14:10.025Z,14.63
2022-10-18T17:16:38.906Z,14.38
2022-10-18T17:19:10.290Z,15.45
2022-10-18T17:21:37.162Z,14.40
2022-10-18T17:24:06.012Z,12.43
2022-10-18T17:26:33.713Z,12.75
2022-10-18T17:29:03.939Z,11.40
2022-10-18T17:31:31.458Z,10.50
2022-10-18T17:34:01.519Z,10.27
2022-10-18T17:36:29.742Z,9.67
2022-10-18T17:38:57.179Z,10.18
2022-10-18T17:41:24.165Z,10.57
2022-10-18T17:43:51.254Z,12.77
2022-10-18T17:46:19.525Z,12.32
2022-10-18T17:48:46.456Z,11.17
2022-10-18T17:51:15.936Z,12.73
2022-10-18T17:53:42.895Z,21.83
2022-10-18T17:56:11.070Z,19.27
2022-10-18T17:58:37.904Z,14.80
2022-10-18T18:01:15.822Z,12.57
2022-10-18T18:03:42.979Z,13.73
2022-10-18T18:06:13.972Z,14.15
2022-10-18T18:08:40.791Z,14.57
2022-10-18T18:11:07.523Z,12.68
2022-10-18T18:13:34.399Z,10.73
2022-10-18T18:16:16.386Z,9.70
2022-10-18T18:18:44.414Z,9.27
2022-10-18T18:21:12.584Z,9.02
2022-10-18T18:23:39.515Z,9.13
2022-10-18T18:26:06.968Z,8.87
2022-10-18T18:28:36.021Z,9.25
2022-10-18T18:31:14.864Z,9.68
2022-10-18T18:33:42.238Z,13.27
2022-10-18T18:36:09.434Z,22.77
2022-10-18T18:38:38.844Z,19.20
2022-10-18T18:41:17.657Z,17.20
2022-10-18T18:43:49.273Z,17.25
2022-10-18T18:46:16.068Z,14.90
2022-10-18T18:48:42.970Z,13.55
2022-10-18T18:51:16.643Z,10.77
2022-10-18T18:53:44.480Z,9.18
2022-10-18T18:56:17.040Z,7.93
2022-10-18T18:58:45.161Z,8.32
2022-10-18T19:01:14.759Z,9.02
2022-10-18T19:03:42.870Z,8.43
2022-10-18T19:06:14.326Z,9.20
2022-10-18T19:08:41.835Z,7.72
2022-10-18T19:11:09.486Z,8.07
2022-10-18T19:13:36.778Z,7.95
2022-10-18T19:16:23.179Z,8.33
2022-10-18T19:18:58.173Z,8.80
2022-10-18T19:21:30.434Z,8.82
2022-10-18T19:23:58.135Z,20.80
2022-10-18T19:26:32.452Z,15.07
2022-10-18T19:29:24.311Z,8.43
2022-10-18T19:31:53.518Z,7.18
2022-10-18T19:34:21.613Z,6.88
2022-10-18T19:36:49.233Z,8.18
2022-10-18T19:39:30.200Z,8.05
2022-10-18T19:41:59.073Z,9.53
2022-10-18T19:44:29.056Z,11.20
2022-10-18T19:46:55.955Z,12.30
2022-10-18T19:49:22.795Z,11.20
2022-10-18T19:51:49.689Z,11.38
2022-10-18T19:54:16.894Z,10.83
2022-10-18T19:56:44.144Z,10.68
2022-10-18T19:59:13.112Z,12.18
2022-10-18T20:01:39.904Z,11.18
2022-10-18T20:04:09.082Z,11.35
2022-10-18T20:06:37.398Z,11.70
2022-10-18T20:09:05.291Z,11.50
2022-10-18T20:11:32.572Z,10.70
2022-10-18T20:13:59.835Z,11.70
2022-10-18T20:16:29.867Z,11.82
2022-10-18T20:19:01.623Z,11.43
2022-10-18T20:21:31.671Z,11.88
2022-10-18T20:23:58.743Z,10.90
2022-10-18T20:26:25.721Z,11.05
2022-10-18T20:28:57.240Z,10.95
2022-10-18T20:31:30.670Z,10.57
2022-10-18T20:34:00.296Z,10.38
2022-10-18T20:36:28.910Z,11.13
2022-10-18T20:38:56.090Z,11.52
2022-10-18T20:41:27.240Z,11.35
2022-10-18T20:43:58.830Z,10.60
2022-10-18T20:46:27.359Z,11.10
2022-10-18T20:48:54.727Z,10.90
2022-10-18T20:51:21.961Z,10.73
2022-10-18T20:53:49.242Z,10.48
2022-10-18T20:56:20.433Z,9.80
2022-10-18T20:58:49.814Z,10.20
2022-10-18T21:01:37.869Z,10.30
2022-10-18T21:04:07.007Z,9.88
2022-10-18T21:06:37.255Z,10.40
2022-10-18T21:09:16.568Z,10.37
2022-10-18T21:11:45.439Z,9.90
2022-10-18T21:14:15.087Z,9.48
2022-10-18T21:16:42.871Z,10.07
2022-10-18T21:19:15.460Z,9.63
2022-10-18T21:21:44.758Z,10.10
2022-10-18T21:24:12.907Z,10.00
2022-10-18T21:26:40.244Z,9.95
2022-10-18T21:29:07.573Z,10.20
2022-10-18T21:31:36.714Z,9.57
2022-10-18T21:34:06.429Z,10.63
2022-10-18T21:36:35.497Z,10.05
2022-10-18T21:39:04.154Z,9.40
2022-10-18T21:41:31.798Z,9.95
2022-10-18T21:43:58.491Z,9.95
2022-10-18T21:46:26.963Z,10.27
2022-10-18T21:48:56.427Z,10.20
2022-10-18T21:51:27.457Z,10.10
2022-10-18T21:53:56.059Z,10.45
2022-10-18T21:56:27.470Z,9.98
2022-10-18T21:58:54.903Z,10.00
2022-10-18T22:01:27.793Z,9.85
2022-10-18T22:03:56.497Z,9.85
2022-10-18T22:06:24.215Z,9.63
2022-10-18T22:08:53.390Z,9.55
2022-10-18T22:11:23.180Z,9.87
2022-10-18T22:13:49.941Z,9.60
2022-10-18T22:16:16.973Z,10.05
2022-10-18T22:18:45.921Z,9.55
2022-10-18T22:21:14.552Z,8.90
2022-10-18T22:23:49.952Z,10.03
2022-10-18T22:26:22.026Z,8.70
2022-10-18T22:28:58.209Z,9.02
2022-10-18T22:31:27.957Z,9.38
2022-10-18T22:33:56.591Z,10.13
2022-10-18T22:36:24.085Z,10.33
2022-10-18T22:38:51.314Z,10.45
2022-10-18T22:41:18.439Z,10.40
2022-10-18T22:43:45.496Z,10.10
2022-10-18T22:46:13.783Z,11.50
2022-10-18T22:48:40.969Z,10.73
2022-10-18T22:51:08.913Z,10.80
2022-10-18T22:53:36.522Z,11.27
2022-10-18T22:56:04.122Z,11.45
2022-10-18T22:58:30.813Z,11.45
2022-10-18T23:01:18.351Z,11.70
2022-10-18T23:03:45.446Z,11.60
2022-10-18T23:06:26.909Z,11.77
2022-10-18T23:08:55.026Z,12.15
2022-10-18T23:11:24.619Z,13.18
2022-10-18T23:13:51.534Z,12.27
2022-10-18T23:16:18.954Z,12.55
2022-10-18T23:18:54.059Z,12.70
2022-10-18T23:21:24.275Z,11.75
2022-10-18T23:23:51.993Z,12.80
2022-10-18T23:26:22.907Z,11.90
2022-10-18T23:28:51.233Z,11.85
2022-10-18T23:31:22.082Z,12.55
2022-10-18T23:33:51.156Z,12.55
2022-10-18T23:36:18.263Z,12.30
2022-10-18T23:38:45.077Z,12.87
2022-10-18T23:41:13.839Z,13.13
2022-10-18T23:43:41.539Z,13.70
2022-10-18T23:46:08.750Z,12.70
2022-10-18T23:52:47.474Z,11.70
2022-10-18T23:55:14.319Z,12.70
2022-10-18T23:57:41.137Z,12.77
